Cambuquira, Brazil
Current Conditions -  °F | °C
As of 8:00 PM on Wednesday 17 Dec 2014 (Local Time) from SBGW Reporting Station
Scattered Clouds Scattered Clouds  
Wind Chill: 84°   Ceiling: Unl
Heat Index: 85°   Visibility: 6mi
Dew Point: 63°   Wind: 3mph
Humidity: 48%   Direction: 40°NE
Pressure: 29.83"   Gusts: NA
Location:  21.85°S, 45.3°W
Report Text: SBGW 172200Z 04003KT 9999 SCT030 29/17 Q1010
Loading
Personal Weather Stations






























Interactive Weather Map New forecast layout! Learn more

10-Day Weather Forecast

Advertisements
Track Severe Weather on mobile